A24e — 3FIQ — position and weather

sailwx.info

Track history (hours):
 
Tides and Currents Weather Stations Pressure Air Temp Water Temp Dewpoint Dewpoint Depression Visibility Wind Speed Wind Dir Waves Ship Positions

A24e

Last reported at 2018-Jun-20 22:01 UTC. Time now 2018-Aug-14 15:18 UTC.
Position N 18°22' W 064°45'.
Warning: this ship's position is 54 days out of date.

Length 333 m; draft 10.6 m.

Type: Ship. MMSI: 351529000.

Date/timePositionNaut miles runAvg speedWind from/ knotsBaromVisibWave heightAir tempDewpointWater temp
2018-Jun-20 22:01N 18°22' W 064°45'0 0.5
2018-Jun-20 21:58N 18°22' W 064°45'0 0.8
2018-Jun-20 21:30N 18°22' W 064°45'2 3.2
2018-Jun-20 20:59N 18°22' W 064°43'0 0.8
2018-Jun-20 20:30N 18°22' W 064°44'2 4.1
2018-Jun-20 20:00N 18°22' W 064°46'1 0.3
2018-Jun-20 17:26N 18°21' W 064°45'1 1.5
2018-Jun-20 16:37N 18°21' W 064°47'0 3.3
2018-Jun-20 16:30N 18°21' W 064°47'1 0.0
2018-Jun-19 21:01N 18°21' W 064°48'0 0.6
2018-Jun-19 20:58N 18°21' W 064°48'1 2.8
2018-Jun-19 20:29N 18°19' W 064°48'2 3.8
2018-Jun-19 19:52N 18°17' W 064°49'2 4.1
2018-Jun-19 19:30N 18°17' W 064°51'  
Track history (hours):
 
Tides and Currents Weather Stations Pressure Air Temp Water Temp Dewpoint Dewpoint Depression Visibility Wind Speed Wind Dir Waves Ship Positions

A24e

Last reported at 2018-Jun-20 22:01 UTC. Time now 2018-Aug-14 15:18 UTC.
Position N 18°22' W 064°45'.
Warning: this ship's position is 54 days out of date.

Length 333 m; draft 10.6 m.

Type: Ship. MMSI: 351529000.

Date/timePositionNaut miles runAvg speedWind from/ knotsBaromVisibWave heightAir tempDewpointWater temp
2018-Jun-20 22:01N 18°22' W 064°45'0 0.5
2018-Jun-20 21:58N 18°22' W 064°45'0 0.8
2018-Jun-20 21:30N 18°22' W 064°45'2 3.2
2018-Jun-20 20:59N 18°22' W 064°43'0 0.8
2018-Jun-20 20:30N 18°22' W 064°44'2 4.1
2018-Jun-20 20:00N 18°22' W 064°46'1 0.3
2018-Jun-20 17:26N 18°21' W 064°45'1 1.5
2018-Jun-20 16:37N 18°21' W 064°47'0 3.3
2018-Jun-20 16:30N 18°21' W 064°47'1 0.0
2018-Jun-19 21:01N 18°21' W 064°48'0 0.6
2018-Jun-19 20:58N 18°21' W 064°48'1 2.8
2018-Jun-19 20:29N 18°19' W 064°48'2 3.8
2018-Jun-19 19:52N 18°17' W 064°49'2 4.1
2018-Jun-19 19:30N 18°17' W 064°51'  

Dump ship's entire track history